CCQ3 weather

Debert Airport
Debert, Nova Scotia, Canada

Public forecast

Using degrees Celsius for public forecast. Weather courtesy of forecast.io.

Closest aviation weather report (METAR) to Debert Airport

Closest report is Halifax / Stanfield International Airport, 32.4 nm (59.9 km) S. Retrieved 2019/10/21 19:00 UTC (5 minutes ago):

CYHZ 211900Z 17007KT 15SM FEW035 FEW230 FEW320 15/07 A3010 RMK CU1CI1CI1 CU TR CI TR CI TR SLP198

Closest aviation forecast (TAF) to Debert Airport

Closest forecast is Halifax / Stanfield International Airport, 32.4 nm (59.9 km) S. Retrieved 2019/10/21 18:42 UTC (23 minutes ago):

TAF CYHZ 211738Z 2118/2218 19008KT P6SM FEW030 SCT100 FM212200 20006KT P6SM SKC FM220400 35006KT P6SM SKC PROB30 2204/2208 1SM BR FM220800 02006KT 6SM BR SKC PROB30 2208/2211 1/2SM FG BKN002 FM221400 06010KT P6SM FEW030 BECMG 2216/2218 10010KT RMK NXT FCST BY 212100Z